Time;durP1;ratioP1;P1;durP2;ratioP2;P2;SDS_P1;SDS_P2;PMS_P1;PMS_P2;Temp;Humidity;BMP_temperature;BMP_pressure;BME280_temperature;BME280_humidity;BME280_pressure;Samples;Min_cycle;Max_cycle;Signal;HPM_P1;HPM_P2
2023/01/09 00:02:23;;;;;;;;;;;;;;;5.96;100.00;94821.84;5076341;28;19960;-70
2023/01/09 00:04:49;;;;;;;;;;;;;;;5.99;100.00;94821.41;5076218;28;20032;-70
2023/01/09 00:07:15;;;;;;;;;;;;;;;5.98;100.00;94815.41;5076350;28;20410;-71
2023/01/09 00:09:41;;;;;;;;;;;;;;;5.96;100.00;94812.22;5076098;28;20095;-71
2023/01/09 00:12:07;;;;;;;;;;;;;;;5.95;100.00;94808.06;5074859;28;19979;-70
2023/01/09 00:14:32;;;;;;;;;;;;;;;5.96;100.00;94811.44;5076382;28;20395;-70
2023/01/09 00:16:58;;;;;;;;;;;;;;;5.96;100.00;94808.84;5076086;28;19957;-70
2023/01/09 00:19:24;;;;;;;;;;;;;;;5.98;100.00;94806.81;5076123;28;19949;-70
2023/01/09 00:21:50;;;;;;;;;;;;;;;6.00;100.00;94809.97;5075881;28;20661;-72
2023/01/09 00:24:16;;;;;;;;;;;;;;;6.01;100.00;94811.56;5076043;28;19959;-70
2023/01/09 00:26:42;;;;;;;;;;;;;;;6.01;100.00;94814.97;5075946;28;20376;-71
2023/01/09 00:29:09;;;;;;;;;;;;;;;6.03;100.00;94818.13;5075834;28;19949;-70
2023/01/09 00:31:35;;;;;;;;;;;;;;;6.04;100.00;94814.50;5075619;28;19963;-70
2023/01/09 00:34:05;;;;;;;;;;;;;;;6.04;100.00;94818.91;5074446;28;19949;-71
2023/01/09 00:36:31;;;;;;;;;;;;;;;6.07;100.00;94813.25;5076058;28;19957;-70
2023/01/09 00:38:57;;;;;;;;;;;;;;;6.05;100.00;94813.47;5075481;28;20318;-70
2023/01/09 00:41:25;;;;;;;;;;;;;;;6.03;100.00;94807.72;5075534;28;19973;-70
2023/01/09 00:43:54;;;;;;;;;;;;;;;6.01;100.00;94812.34;5075558;28;19953;-70
2023/01/09 00:46:23;;;;;;;;;;;;;;;6.01;100.00;94814.97;5075659;28;19954;-70
2023/01/09 00:48:49;;;;;;;;;;;;;;;6.02;100.00;94810.53;5075299;28;19942;-71
2023/01/09 00:51:17;;;;;;;;;;;;;;;6.02;100.00;94808.72;5075371;28;19976;-72
2023/01/09 00:53:43;;;;;;;;;;;;;;;6.06;100.00;94819.47;5075934;28;19946;-70
2023/01/09 00:56:17;;;;;;;;;;;;;;;6.03;100.00;94812.91;5075521;28;20402;-70
2023/01/09 00:58:43;;;;;;;;;;;;;;;6.02;100.00;94813.13;5075597;28;19946;-70
2023/01/09 01:01:09;;;;;;;;;;;;;;;6.01;100.00;94814.97;5075154;28;19946;-71
2023/01/09 01:03:35;;;;;;;;;;;;;;;6.00;100.00;94810.75;5075067;28;20420;-70
2023/01/09 01:08:45;;;;;;;;;;;;;;;6.02;100.00;94810.53;5075170;28;19956;-71
2023/01/09 01:11:11;;;;;;;;;;;;;;;6.02;100.00;94813.91;5073791;28;19965;-70
2023/01/09 01:13:38;;;;;;;;;;;;;;;6.02;100.00;94815.75;5074772;28;19950;-70
2023/01/09 01:16:05;;;;;;;;;;;;;;;6.01;100.00;94806.38;5075384;28;19944;-71
2023/01/09 01:18:31;;;;;;;;;;;;;;;6.00;100.00;94818.56;5074931;28;20320;-71
2023/01/09 01:20:57;;;;;;;;;;;;;;;6.02;100.00;94807.94;5074832;28;19956;-71
2023/01/09 01:23:23;;;;;;;;;;;;;;;6.01;100.00;94811.56;5074992;28;19946;-70
2023/01/09 01:25:49;;;;;;;;;;;;;;;6.02;100.00;94811.31;5074779;28;19959;-70
2023/01/09 01:28:15;;;;;;;;;;;;;;;6.03;100.00;94814.75;5074587;28;19981;-70
2023/01/09 01:30:41;;;;;;;;;;;;;;;6.02;100.00;94813.13;5073901;28;20429;-70
2023/01/09 01:33:07;;;;;;;;;;;;;;;6.01;100.00;94809.75;5074055;28;19959;-70
2023/01/09 01:35:33;;;;;;;;;;;;;;;6.03;100.00;94817.34;5074664;28;19965;-70
2023/01/09 01:37:59;;;;;;;;;;;;;;;6.05;100.00;94823.09;5074434;28;19961;-70
2023/01/09 01:40:25;;;;;;;;;;;;;;;6.07;100.00;94836.69;5074213;28;20384;-70
2023/01/09 01:42:52;;;;;;;;;;;;;;;6.08;100.00;94833.81;5074161;28;19960;-70
2023/01/09 01:45:21;;;;;;;;;;;;;;;6.07;100.00;94836.69;5074250;28;19952;-70
2023/01/09 01:48:02;;;;;;;;;;;;;;;6.06;100.00;94814.25;5074058;28;19982;-71
2023/01/09 01:50:34;;;;;;;;;;;;;;;6.04;100.00;94805.91;5074058;28;19943;-70
2023/01/09 01:53:12;;;;;;;;;;;;;;;6.04;100.00;94808.50;5073604;28;19954;-71
2023/01/09 01:55:40;;;;;;;;;;;;;;;6.04;100.00;94813.69;5074031;28;19948;-70
2023/01/09 01:58:08;;;;;;;;;;;;;;;6.04;100.00;94813.69;5074241;28;19950;-71
2023/01/09 02:00:37;;;;;;;;;;;;;;;6.03;100.00;94812.91;5073603;28;19946;-71
2023/01/09 02:03:04;;;;;;;;;;;;;;;6.02;100.00;94819.13;5073020;28;19958;-70
2023/01/09 02:05:31;;;;;;;;;;;;;;;6.00;100.00;94820.38;5074025;28;19950;-70
2023/01/09 02:07:57;;;;;;;;;;;;;;;6.00;100.00;94807.38;5073716;28;19955;-70
2023/01/09 02:10:23;;;;;;;;;;;;;;;6.03;100.00;94817.34;5074193;28;19999;-70
2023/01/09 02:12:49;;;;;;;;;;;;;;;6.07;100.00;94810.66;5073641;28;20338;-70
2023/01/09 02:15:16;;;;;;;;;;;;;;;6.06;100.00;94815.03;5073639;28;19943;-70
2023/01/09 02:18:01;;;;;;;;;;;;;;;6.07;100.00;94803.63;5074239;28;19950;-70
2023/01/09 02:20:45;;;;;;;;;;;;;;;6.08;100.00;94801.81;5059925;28;19976;-70
2023/01/09 02:23:30;;;;;;;;;;;;;;;6.11;100.00;94816.97;5073964;28;19948;-71
2023/01/09 02:26:14;;;;;;;;;;;;;;;6.13;100.00;94809.72;5073811;28;19948;-70
2023/01/09 02:28:59;;;;;;;;;;;;;;;6.15;100.00;94828.50;5073411;28;20020;-71
2023/01/09 02:31:33;;;;;;;;;;;;;;;6.17;100.00;94829.06;5072896;28;19967;-71
2023/01/09 02:34:03;;;;;;;;;;;;;;;6.18;100.00;94835.06;5071683;28;19941;-70
2023/01/09 02:36:32;;;;;;;;;;;;;;;6.18;100.00;94837.69;5073945;28;19954;-70
2023/01/09 02:39:05;;;;;;;;;;;;;;;6.17;100.00;94842.06;5073372;28;19947;-70
2023/01/09 02:41:43;;;;;;;;;;;;;;;6.14;100.00;94852.16;5073325;28;20935;-70
2023/01/09 02:44:16;;;;;;;;;;;;;;;6.09;100.00;94853.63;5073536;28;19960;-70
2023/01/09 02:46:42;;;;;;;;;;;;;;;6.04;100.00;94858.72;5073431;28;19942;-71
2023/01/09 02:49:08;;;;;;;;;;;;;;;5.99;100.00;94861.22;5073283;28;20383;-70
2023/01/09 02:51:51;;;;;;;;;;;;;;;5.94;100.00;94852.47;5073301;28;19968;-71
2023/01/09 02:54:35;;;;;;;;;;;;;;;5.89;100.00;94833.16;5061442;28;19959;-71
2023/01/09 02:57:01;;;;;;;;;;;;;;;5.86;100.00;94838.81;5072949;28;20336;-72
2023/01/09 02:59:40;;;;;;;;;;;;;;;5.87;100.00;94847.41;5073363;28;19954;-70
2023/01/09 03:02:09;;;;;;;;;;;;;;;5.89;100.00;94850.56;5073142;28;19941;-70
2023/01/09 03:04:41;;;;;;;;;;;;;;;5.92;100.00;94844.13;5073313;28;19946;-70
2023/01/09 03:07:13;;;;;;;;;;;;;;;5.91;100.00;94830.31;5073371;28;19958;-70
2023/01/09 03:09:40;;;;;;;;;;;;;;;5.89;100.00;94838.34;5073336;28;19959;-70
2023/01/09 03:12:09;;;;;;;;;;;;;;;5.91;100.00;94832.91;5072990;28;20358;-70
2023/01/09 03:14:37;;;;;;;;;;;;;;;5.92;100.00;94841.50;5072917;28;19954;-70
2023/01/09 03:17:06;;;;;;;;;;;;;;;5.89;100.00;94848.75;5073808;28;19956;-70
2023/01/09 03:19:33;;;;;;;;;;;;;;;5.90;100.00;94849.56;5073200;28;19954;-70
2023/01/09 03:21:59;;;;;;;;;;;;;;;5.90;100.00;94846.97;5072990;28;19946;-71
2023/01/09 03:24:25;;;;;;;;;;;;;;;5.92;100.00;94847.50;5073083;28;19950;-71
2023/01/09 03:26:53;;;;;;;;;;;;;;;5.94;100.00;94857.69;5072525;28;19986;-71
2023/01/09 03:29:19;;;;;;;;;;;;;;;5.97;100.00;94875.50;5072875;28;19953;-71
2023/01/09 03:31:44;;;;;;;;;;;;;;;5.99;100.00;94886.47;5072711;28;20469;-71
2023/01/09 03:34:11;;;;;;;;;;;;;;;5.98;100.00;94890.06;5073028;28;20401;-71
2023/01/09 03:36:37;;;;;;;;;;;;;;;5.97;100.00;94898.91;5073194;28;19954;-71
2023/01/09 03:39:03;;;;;;;;;;;;;;;5.94;100.00;94900.09;5072915;28;19953;-71
2023/01/09 03:41:29;;;;;;;;;;;;;;;5.92;100.00;94909.16;5072530;28;19974;-71
2023/01/09 03:43:55;;;;;;;;;;;;;;;5.90;100.00;94909.41;5072902;28;20365;-71
2023/01/09 03:46:20;;;;;;;;;;;;;;;5.87;100.00;94910.63;5074115;28;20017;-71
2023/01/09 03:48:46;;;;;;;;;;;;;;;5.84;100.00;94918.88;5076253;28;20011;-71
2023/01/09 03:51:12;;;;;;;;;;;;;;;5.82;100.00;94933.16;5076341;28;19996;-71
2023/01/09 03:53:38;;;;;;;;;;;;;;;5.80;100.00;94946.38;5076448;28;19955;-71
2023/01/09 03:56:04;;;;;;;;;;;;;;;5.83;100.00;94958.91;5076422;28;19990;-71
2023/01/09 03:58:30;;;;;;;;;;;;;;;5.84;100.00;94962.31;5076291;28;19953;-71
2023/01/09 04:01:00;;;;;;;;;;;;;;;5.84;100.00;94981.31;5076422;28;19986;-71
2023/01/09 04:03:26;;;;;;;;;;;;;;;5.82;100.00;94992.97;5076293;28;19961;-71
2023/01/09 04:05:52;;;;;;;;;;;;;;;5.78;100.00;94999.63;5076215;28;19955;-71
2023/01/09 04:08:18;;;;;;;;;;;;;;;5.73;100.00;94997.69;5076053;28;19983;-71
2023/01/09 04:10:48;;;;;;;;;;;;;;;5.69;100.00;95002.56;5076000;28;19949;-71
2023/01/09 04:13:14;;;;;;;;;;;;;;;5.63;100.00;95010.47;5076276;28;20434;-71
2023/01/09 04:15:40;;;;;;;;;;;;;;;5.59;100.00;95022.31;5075941;28;20343;-71
2023/01/09 04:18:06;;;;;;;;;;;;;;;5.55;100.00;95037.56;5076168;28;19949;-70
2023/01/09 04:20:32;;;;;;;;;;;;;;;5.46;100.00;95044.88;5075780;28;19993;-70
2023/01/09 04:22:58;;;;;;;;;;;;;;;5.35;100.00;95055.22;5075998;28;20404;-71
2023/01/09 04:25:25;;;;;;;;;;;;;;;5.22;100.00;95048.38;5075907;28;19956;-70
2023/01/09 04:27:51;;;;;;;;;;;;;;;5.13;100.00;95054.88;5075827;28;19958;-70
2023/01/09 04:30:16;;;;;;;;;;;;;;;5.00;100.00;95048.81;5075743;28;19979;-70
2023/01/09 04:32:42;;;;;;;;;;;;;;;4.88;100.00;95060.94;5075725;28;19965;-70
2023/01/09 04:35:08;;;;;;;;;;;;;;;4.81;100.00;95068.81;5075632;28;19952;-70
2023/01/09 04:37:37;;;;;;;;;;;;;;;4.75;100.00;95081.84;5075638;28;19955;-70
2023/01/09 04:40:09;;;;;;;;;;;;;;;4.68;100.00;95084.50;5075746;28;19981;-70
2023/01/09 04:42:35;;;;;;;;;;;;;;;4.64;100.00;95084.16;5075541;28;19951;-70
2023/01/09 04:45:01;;;;;;;;;;;;;;;4.59;100.00;95103.97;5075587;28;20063;-71
2023/01/09 04:47:29;;;;;;;;;;;;;;;4.54;100.00;95094.22;5075102;28;19947;-70
2023/01/09 04:49:56;;;;;;;;;;;;;;;4.49;100.00;95096.66;5075362;28;19957;-71
2023/01/09 04:52:21;;;;;;;;;;;;;;;4.47;100.00;95111.63;5075151;28;19985;-71
2023/01/09 04:54:47;;;;;;;;;;;;;;;4.44;100.00;95106.88;5075518;28;20404;-71
2023/01/09 04:57:13;;;;;;;;;;;;;;;4.39;100.00;95117.09;5074802;28;20001;-70
2023/01/09 04:59:39;;;;;;;;;;;;;;;4.39;100.00;95130.88;5075241;28;19957;-70
2023/01/09 05:02:05;;;;;;;;;;;;;;;4.39;100.00;95130.88;5075288;28;19992;-70
2023/01/09 05:04:31;;;;;;;;;;;;;;;4.37;100.00;95132.09;5073772;28;19944;-70
2023/01/09 05:06:57;;;;;;;;;;;;;;;4.37;100.00;95143.28;5074944;28;20007;-71
2023/01/09 05:09:23;;;;;;;;;;;;;;;4.33;100.00;95147.28;5074992;28;19990;-72
2023/01/09 05:11:49;;;;;;;;;;;;;;;4.29;100.00;95146.13;5074730;28;19972;-70
2023/01/09 05:14:15;;;;;;;;;;;;;;;4.27;100.00;95142.94;5075192;28;19947;-72
2023/01/09 05:16:41;;;;;;;;;;;;;;;4.25;100.00;95148.34;5074656;28;20469;-70
2023/01/09 05:19:07;;;;;;;;;;;;;;;4.24;100.00;95157.13;5075080;28;20017;-71
2023/01/09 05:21:33;;;;;;;;;;;;;;;4.23;100.00;95155.53;5074433;28;19985;-71
2023/01/09 05:23:59;;;;;;;;;;;;;;;4.23;100.00;95163.31;5074677;28;19952;-71
2023/01/09 05:26:24;;;;;;;;;;;;;;;4.26;100.00;95164.69;5074524;28;20037;-71
2023/01/09 05:28:51;;;;;;;;;;;;;;;4.26;100.00;95165.50;5074961;28;19947;-70
2023/01/09 05:31:17;;;;;;;;;;;;;;;4.27;100.00;95168.88;5074512;28;19949;-71
2023/01/09 05:33:43;;;;;;;;;;;;;;;4.25;100.00;95179.47;5074656;28;19947;-71
2023/01/09 05:36:09;;;;;;;;;;;;;;;4.21;100.00;95175.69;5074292;28;20000;-72
2023/01/09 05:38:34;;;;;;;;;;;;;;;4.17;100.00;95189.31;5074281;28;19989;-73
2023/01/09 05:41:00;;;;;;;;;;;;;;;4.14;100.00;95189.75;5074560;28;20031;-71
2023/01/09 05:43:26;;;;;;;;;;;;;;;4.12;100.00;95196.94;5074432;28;20057;-71
2023/01/09 05:45:52;;;;;;;;;;;;;;;4.09;100.00;95198.13;5074335;28;20044;-71
2023/01/09 05:48:18;;;;;;;;;;;;;;;4.07;100.00;95197.53;5074211;28;19952;-70
2023/01/09 05:50:44;;;;;;;;;;;;;;;4.07;100.00;95185.38;5074185;28;19982;-71
2023/01/09 05:53:10;;;;;;;;;;;;;;;4.06;100.00;95181.19;5074008;28;20049;-71
2023/01/09 05:55:36;;;;;;;;;;;;;;;4.04;100.00;95193.56;5074098;28;20370;-70
2023/01/09 05:58:01;;;;;;;;;;;;;;;4.00;100.00;95192.38;5073873;28;19949;-71
2023/01/09 06:00:27;;;;;;;;;;;;;;;3.98;100.00;95189.19;5073854;28;20378;-70
2023/01/09 06:02:53;;;;;;;;;;;;;;;3.98;100.00;95196.19;5073263;28;19948;-71
2023/01/09 06:05:19;;;;;;;;;;;;;;;3.97;100.00;95192.00;5073920;28;19961;-71
2023/01/09 06:07:45;;;;;;;;;;;;;;;3.99;100.00;95197.75;5073685;28;20054;-71
2023/01/09 06:10:12;;;;;;;;;;;;;;;3.94;100.00;95201.00;5073272;28;20376;-70
2023/01/09 06:12:38;;;;;;;;;;;;;;;3.89;100.00;95193.03;5073600;28;19962;-70
2023/01/09 06:15:04;;;;;;;;;;;;;;;3.87;100.00;95202.81;5073865;28;20322;-70
2023/01/09 06:17:30;;;;;;;;;;;;;;;3.87;100.00;95220.97;5073723;28;19955;-70
2023/01/09 06:19:56;;;;;;;;;;;;;;;3.89;100.00;95218.19;5073483;28;19987;-70
2023/01/09 06:22:22;;;;;;;;;;;;;;;3.87;100.00;95220.97;5073814;28;20412;-72
2023/01/09 06:24:48;;;;;;;;;;;;;;;3.81;100.00;95222.59;5073645;28;19952;-70
2023/01/09 06:27:13;;;;;;;;;;;;;;;3.83;100.00;95233.56;5072569;28;20012;-70
2023/01/09 06:29:39;;;;;;;;;;;;;;;3.84;100.00;95232.56;5073533;28;19960;-70
2023/01/09 06:32:05;;;;;;;;;;;;;;;3.82;100.00;95234.56;5073512;28;20466;-70
2023/01/09 06:34:31;;;;;;;;;;;;;;;3.83;100.00;95241.34;5073632;28;19953;-70
2023/01/09 06:36:57;;;;;;;;;;;;;;;3.82;100.00;95237.16;5073553;28;20013;-70
2023/01/09 06:39:23;;;;;;;;;;;;;;;3.83;100.00;95243.94;5073269;28;19993;-70
2023/01/09 06:41:49;;;;;;;;;;;;;;;3.83;100.00;95243.94;5072519;28;19972;-70
2023/01/09 06:44:15;;;;;;;;;;;;;;;3.84;100.00;95236.94;5073394;28;19957;-70
2023/01/09 06:46:41;;;;;;;;;;;;;;;3.82;100.00;95221.59;5073087;28;19949;-70
2023/01/09 06:49:07;;;;;;;;;;;;;;;3.79;100.00;95242.75;5073312;28;20320;-70
2023/01/09 06:51:33;;;;;;;;;;;;;;;3.80;100.00;95238.34;5073238;28;20351;-70
2023/01/09 06:53:59;;;;;;;;;;;;;;;3.77;100.00;95244.75;5073829;28;19953;-70
2023/01/09 06:56:25;;;;;;;;;;;;;;;3.78;100.00;95241.16;5073486;28;20397;-70
2023/01/09 06:58:51;;;;;;;;;;;;;;;3.79;100.00;95237.56;5073358;28;20376;-70
2023/01/09 07:01:17;;;;;;;;;;;;;;;3.84;100.00;95248.13;5073097;28;19962;-70
2023/01/09 07:03:43;;;;;;;;;;;;;;;3.89;100.00;95247.50;5073158;28;20003;-70
2023/01/09 07:06:09;;;;;;;;;;;;;;;3.93;100.00;95243.50;5073102;28;19953;-70
2023/01/09 07:08:35;;;;;;;;;;;;;;;3.97;100.00;95244.69;5073363;28;19946;-71
2023/01/09 07:11:01;;;;;;;;;;;;;;;4.00;100.00;95254.63;5073092;28;19953;-70
2023/01/09 07:13:27;;;;;;;;;;;;;;;4.01;100.00;95247.63;5073061;28;20420;-70
2023/01/09 07:15:52;;;;;;;;;;;;;;;4.01;100.00;95258.00;5073069;28;19946;-70
2023/01/09 07:18:18;;;;;;;;;;;;;;;3.99;100.00;95260.84;5072993;28;19997;-70
2023/01/09 07:20:44;;;;;;;;;;;;;;;3.98;100.00;95259.22;5074698;28;20420;-70
2023/01/09 07:23:11;;;;;;;;;;;;;;;3.97;100.00;95262.84;5077475;28;19953;-70
2023/01/09 07:25:38;;;;;;;;;;;;;;;3.99;100.00;95270.41;5076758;28;20414;-70
2023/01/09 07:28:04;;;;;;;;;;;;;;;3.97;100.00;95275.81;5076957;28;19944;-70
2023/01/09 07:30:30;;;;;;;;;;;;;;;3.96;100.00;95281.19;5076727;28;19952;-70
2023/01/09 07:32:55;;;;;;;;;;;;;;;3.94;100.00;95275.41;5075580;28;19968;-71
2023/01/09 07:35:21;;;;;;;;;;;;;;;3.97;100.00;95277.59;5076799;28;20003;-70
2023/01/09 07:37:47;;;;;;;;;;;;;;;4.01;100.00;95289.97;5076768;28;19952;-70
2023/01/09 07:40:13;;;;;;;;;;;;;;;4.13;100.00;95282.31;5076802;28;20289;-70
2023/01/09 07:42:39;;;;;;;;;;;;;;;4.25;100.00;95285.06;5076291;28;19971;-70
2023/01/09 07:45:05;;;;;;;;;;;;;;;4.32;100.00;95275.44;5076605;28;19952;-70
2023/01/09 07:47:31;;;;;;;;;;;;;;;4.32;100.00;95285.03;5076384;28;19946;-70
2023/01/09 07:49:57;;;;;;;;;;;;;;;4.37;100.00;95282.63;5076517;28;20016;-70
2023/01/09 07:52:23;;;;;;;;;;;;;;;4.34;100.00;95276.03;5076370;28;19966;-70
2023/01/09 07:54:49;;;;;;;;;;;;;;;4.28;100.00;95284.66;5076299;28;19989;-71
2023/01/09 07:57:15;;;;;;;;;;;;;;;4.20;100.00;95287.47;5076631;28;20294;-70
2023/01/09 07:59:41;;;;;;;;;;;;;;;4.16;100.00;95281.91;5076240;28;19989;-70
2023/01/09 08:02:08;;;;;;;;;;;;;;;4.12;100.00;95282.53;5076342;28;19948;-70
2023/01/09 08:04:34;;;;;;;;;;;;;;;4.06;100.00;95286.75;5076645;28;20392;-71
2023/01/09 08:07:02;;;;;;;;;;;;;;;4.03;100.00;95290.56;5076054;28;19950;-70
2023/01/09 08:09:28;;;;;;;;;;;;;;;3.96;100.00;95278.59;5076435;28;19956;-70
2023/01/09 08:11:56;;;;;;;;;;;;;;;3.95;100.00;95288.19;5075955;28;19943;-70
2023/01/09 08:14:22;;;;;;;;;;;;;;;3.97;100.00;95283.59;5075904;28;19951;-70
2023/01/09 08:16:48;;;;;;;;;;;;;;;3.98;100.00;95286.97;5076163;28;19946;-70
2023/01/09 08:19:13;;;;;;;;;;;;;;;3.96;100.00;95278.59;5076408;28;19951;-70
2023/01/09 08:21:39;;;;;;;;;;;;;;;3.97;100.00;95285.38;5075721;28;19961;-70
2023/01/09 08:24:05;;;;;;;;;;;;;;;3.92;100.00;95273.00;5075792;28;19972;-70
2023/01/09 08:26:31;;;;;;;;;;;;;;;3.91;100.00;95276.63;5075164;28;20326;-70
2023/01/09 08:28:57;;;;;;;;;;;;;;;3.93;100.00;95284.22;5075901;28;19953;-70
2023/01/09 08:31:23;;;;;;;;;;;;;;;4.05;100.00;95285.97;5074904;28;20042;-71
2023/01/09 08:33:49;;;;;;;;;;;;;;;4.10;100.00;95279.34;5075742;28;20381;-70
2023/01/09 08:36:15;;;;;;;;;;;;;;;4.09;100.00;95288.91;5075508;28;19951;-70
2023/01/09 08:38:41;;;;;;;;;;;;;;;4.06;100.00;95278.97;5076002;28;20353;-70
2023/01/09 08:49:20;;;;;;;;;;;;;;;4.08;100.00;95284.75;5074883;28;19974;-70
2023/01/09 08:51:46;;;;;;;;;;;;;;;4.10;100.00;95280.16;5075298;28;19984;-70
2023/01/09 08:54:12;;;;;;;;;;;;;;;4.13;100.00;95277.13;5075029;28;19954;-70
2023/01/09 08:56:38;;;;;;;;;;;;;;;4.14;100.00;95280.53;5075213;28;20026;-70
2023/01/09 08:59:03;;;;;;;;;;;;;;;4.15;100.00;95287.31;5075371;28;20025;-71
2023/01/09 09:01:29;;;;;;;;;;;;;;;4.17;100.00;95282.72;5075506;28;19949;-70
2023/01/09 09:03:55;;;;;;;;;;;;;;;4.20;100.00;95285.69;5075040;28;19954;-70
2023/01/09 09:06:21;;;;;;;;;;;;;;;4.24;100.00;95286.06;5075113;28;20041;-70
2023/01/09 09:08:47;;;;;;;;;;;;;;;4.26;100.00;95278.88;5074628;28;19968;-70
2023/01/09 09:11:13;;;;;;;;;;;;;;;4.27;100.00;95285.66;5074942;28;20080;-70
2023/01/09 09:13:39;;;;;;;;;;;;;;;4.30;100.00;95287.03;5074587;28;19970;-70
2023/01/09 09:16:05;;;;;;;;;;;;;;;4.35;100.00;95289.84;5074951;28;19981;-70
2023/01/09 09:18:30;;;;;;;;;;;;;;;4.40;100.00;95290.00;5074663;28;19955;-70
2023/01/09 09:20:56;;;;;;;;;;;;;;;4.43;100.00;95292.97;5074862;28;20361;-70
2023/01/09 09:23:22;;;;;;;;;;;;;;;4.51;100.00;95289.31;5074129;28;20375;-70
2023/01/09 09:25:48;;;;;;;;;;;;;;;4.72;100.00;95288.22;5074509;28;19947;-70
2023/01/09 09:28:14;;;;;;;;;;;;;;;4.82;100.00;95295.56;5074975;28;20410;-72
2023/01/09 09:30:41;;;;;;;;;;;;;;;4.91;100.00;95298.69;5074422;28;20002;-70
2023/01/09 09:33:08;;;;;;;;;;;;;;;4.97;100.00;95288.25;5074651;28;20326;-71
2023/01/09 09:35:34;;;;;;;;;;;;;;;5.02;100.00;95285.81;5074594;28;19947;-70
2023/01/09 09:38:00;;;;;;;;;;;;;;;5.12;100.00;95293.13;5074343;28;19956;-71
2023/01/09 09:40:33;;;;;;;;;;;;;;;5.17;100.00;95288.09;5074394;28;19981;-70
2023/01/09 09:46:09;;;;;;;;;;;;;;;5.19;100.00;95300.91;5065971;28;19960;-71
2023/01/09 09:48:45;;;;;;;;;;;;;;;5.16;100.00;95299.50;5074206;28;19954;-70
2023/01/09 09:51:22;;;;;;;;;;;;;;;5.14;100.00;95290.31;5074224;28;20411;-70
2023/01/09 09:53:58;;;;;;;;;;;;;;;5.11;100.00;95299.34;5073890;28;19954;-70
2023/01/09 09:56:25;;;;;;;;;;;;;;;5.08;100.00;95310.16;5074048;28;19942;-70
2023/01/09 09:59:03;;;;;;;;;;;;;;;5.11;100.00;95307.16;5074025;28;19945;-70
2023/01/09 10:01:38;;;;;;;;;;;;;;;5.14;100.00;95311.13;5074066;28;19980;-70
2023/01/09 10:04:09;;;;;;;;;;;;;;;5.15;100.00;95315.31;5074130;28;19946;-70
2023/01/09 10:06:41;;;;;;;;;;;;;;;5.15;100.00;95300.50;5073184;28;19945;-71
2023/01/09 10:09:25;;;;;;;;;;;;;;;5.16;100.00;95293.50;5073986;28;19949;-70
2023/01/09 10:11:58;;;;;;;;;;;;;;;5.18;100.00;95292.28;5073284;28;19951;-70
2023/01/09 10:14:24;;;;;;;;;;;;;;;5.21;100.00;95289.28;5073953;28;19964;-70
2023/01/09 10:17:08;;;;;;;;;;;;;;;5.21;100.00;95286.69;5073845;28;20285;-70
2023/01/09 10:19:40;;;;;;;;;;;;;;;5.24;100.00;95296.63;5061562;28;19951;-71
2023/01/09 10:22:12;;;;;;;;;;;;;;;5.26;100.00;95286.03;5073434;28;19945;-70
2023/01/09 10:24:52;;;;;;;;;;;;;;;5.28;100.00;95286.63;5073421;28;19947;-70
2023/01/09 10:27:32;;;;;;;;;;;;;;;5.31;100.00;95288.78;5073803;28;20325;-71
2023/01/09 10:29:58;;;;;;;;;;;;;;;5.32;100.00;95290.38;5073435;28;20322;-70
2023/01/09 10:32:31;;;;;;;;;;;;;;;5.33;100.00;95293.78;5073396;28;19946;-70
2023/01/09 10:35:16;;;;;;;;;;;;;;;5.33;100.00;95281.56;5073798;28;19947;-70
2023/01/09 10:37:45;;;;;;;;;;;;;;;5.34;100.00;95275.38;5073310;28;19953;-70
2023/01/09 10:40:17;;;;;;;;;;;;;;;5.33;100.00;95260.78;5071897;28;19974;-71
2023/01/09 10:42:43;;;;;;;;;;;;;;;5.34;100.00;95259.78;5073194;28;19975;-72
2023/01/09 10:45:27;;;;;;;;;;;;;;;5.35;100.00;95266.56;5073324;28;19949;-71
2023/01/09 10:47:59;;;;;;;;;;;;;;;5.37;100.00;95271.53;5073250;28;19950;-71
2023/01/09 10:50:31;;;;;;;;;;;;;;;5.36;100.00;95267.38;5073645;28;19944;-70
2023/01/09 10:52:59;;;;;;;;;;;;;;;5.36;100.00;95268.16;5073027;28;19961;-70
2023/01/09 10:55:28;;;;;;;;;;;;;;;5.40;100.00;95271.13;5072665;28;19943;-70
2023/01/09 10:57:58;;;;;;;;;;;;;;;5.40;100.00;95256.31;5073399;28;19948;-70
2023/01/09 11:00:24;;;;;;;;;;;;;;;5.42;100.00;95261.31;5073070;28;19951;-70
2023/01/09 11:02:51;;;;;;;;;;;;;;;5.47;100.00;95264.06;5073293;28;19949;-70
2023/01/09 11:05:22;;;;;;;;;;;;;;;5.49;100.00;95259.44;5073024;28;20321;-71
2023/01/09 11:08:12;;;;;;;;;;;;;;;5.50;99.88;95245.41;5073532;28;19954;-71
2023/01/09 11:10:44;;;;;;;;;;;;;;;5.53;100.00;95247.59;5072935;28;19953;-71
2023/01/09 11:13:30;;;;;;;;;;;;;;;5.58;100.00;95252.16;5073107;28;19966;-70
2023/01/09 11:16:05;;;;;;;;;;;;;;;5.64;100.00;95244.28;5064324;28;19951;-71
2023/01/09 11:18:36;;;;;;;;;;;;;;;5.69;100.00;95236.63;5073088;28;19952;-71
2023/01/09 11:21:12;;;;;;;;;;;;;;;5.73;100.00;95233.59;5073606;28;20323;-71
2023/01/09 11:23:38;;;;;;;;;;;;;;;5.77;100.00;95225.13;5072934;28;19953;-71
2023/01/09 11:26:04;;;;;;;;;;;;;;;5.80;99.10;95229.13;5073038;28;19948;-70
2023/01/09 11:28:30;;;;;;;;;;;;;;;5.83;100.00;95232.06;5072707;28;20491;-71
2023/01/09 11:30:58;;;;;;;;;;;;;;;5.86;99.74;95231.63;5072915;28;20334;-71
2023/01/09 11:33:26;;;;;;;;;;;;;;;5.91;99.89;95220.56;5073034;28;19960;-70
2023/01/09 11:35:57;;;;;;;;;;;;;;;5.97;100.00;95226.75;5072886;28;19949;-71
2023/01/09 11:38:23;;;;;;;;;;;;;;;6.01;100.00;95217.50;5073040;28;19961;-70
2023/01/09 11:40:50;;;;;;;;;;;;;;;6.04;99.99;95212.63;5072719;28;19975;-71
2023/01/09 11:43:16;;;;;;;;;;;;;;;6.06;97.31;95207.22;5072729;28;19955;-71
2023/01/09 11:45:45;;;;;;;;;;;;;;;6.07;97.72;95217.41;5072784;28;19989;-71
2023/01/09 11:48:18;;;;;;;;;;;;;;;6.08;96.84;95205.97;5073090;28;19949;-71
2023/01/09 11:50:52;;;;;;;;;;;;;;;6.10;97.05;95205.75;5072721;28;20442;-70
2023/01/09 11:53:19;;;;;;;;;;;;;;;6.10;96.62;95214.34;5072732;28;19969;-71
2023/01/09 11:55:46;;;;;;;;;;;;;;;6.09;95.20;95201.59;5071438;28;19954;-71
2023/01/09 11:58:13;;;;;;;;;;;;;;;6.08;95.23;95200.75;5072810;28;19951;-71
2023/01/09 12:00:47;;;;;;;;;;;;;;;6.10;96.38;95216.16;5071303;28;20322;-70
2023/01/09 12:03:39;;;;;;;;;;;;;;;6.14;96.49;95206.13;5056866;28;19938;-71
2023/01/09 12:06:22;;;;;;;;;;;;;;;6.22;95.61;95206.59;5049313;28;20313;-71
2023/01/09 12:08:57;;;;;;;;;;;;;;;6.43;96.20;95220.94;5063675;28;20318;-71
2023/01/09 12:11:33;;;;;;;;;;;;;;;6.71;94.39;95204.69;5076319;28;19955;-71
2023/01/09 12:13:59;;;;;;;;;;;;;;;6.85;94.20;95201.91;5074943;28;19977;-71
2023/01/09 12:16:35;;;;;;;;;;;;;;;6.91;94.47;95203.63;5074978;28;20410;-71
2023/01/09 12:19:10;;;;;;;;;;;;;;;7.01;92.20;95188.19;5063010;28;19952;-71
2023/01/09 12:21:45;;;;;;;;;;;;;;;7.18;90.35;95171.88;5076344;28;19941;-71
2023/01/09 12:24:29;;;;;;;;;;;;;;;7.33;92.73;95198.28;5062750;28;19944;-71
2023/01/09 12:26:58;;;;;;;;;;;;;;;7.48;87.44;95154.28;5075547;28;19979;-71
2023/01/09 12:29:24;;;;;;;;;;;;;;;7.50;89.28;95170.50;5076115;28;19950;-71
2023/01/09 12:32:19;;;;;;;;;;;;;;;7.41;87.72;95165.84;5075816;28;19952;-71
2023/01/09 12:35:02;;;;;;;;;;;;;;;7.27;88.46;95173.91;5062799;28;19994;-71
2023/01/09 12:37:40;;;;;;;;;;;;;;;7.17;90.76;95198.97;5076159;28;20407;-71
2023/01/09 12:40:09;;;;;;;;;;;;;;;7.09;88.25;95179.25;5075648;28;19973;-71
2023/01/09 12:42:41;;;;;;;;;;;;;;;7.01;88.33;95187.41;5075796;28;20331;-71
2023/01/09 12:45:25;;;;;;;;;;;;;;;6.97;89.51;95194.06;5075471;28;19950;-71
2023/01/09 12:47:52;;;;;;;;;;;;;;;6.96;92.99;95223.78;5075569;28;20384;-71
2023/01/09 12:50:20;;;;;;;;;;;;;;;6.95;91.62;95214.34;5075442;28;19953;-71
2023/01/09 12:52:46;;;;;;;;;;;;;;;6.84;91.32;95213.31;5075098;28;19945;-71
2023/01/09 12:55:24;;;;;;;;;;;;;;;6.78;91.02;95216.81;5075518;28;19948;-71
2023/01/09 12:57:52;;;;;;;;;;;;;;;6.69;90.66;95214.53;5075191;28;19952;-71
2023/01/09 13:00:28;;;;;;;;;;;;;;;6.69;94.34;95250.22;5075422;28;20422;-71
2023/01/09 13:03:00;;;;;;;;;;;;;;;6.72;94.28;95252.41;5075356;28;20413;-71
2023/01/09 13:05:34;;;;;;;;;;;;;;;6.73;94.09;95242.78;5075123;28;19956;-71
2023/01/09 13:08:18;;;;;;;;;;;;;;;6.71;94.04;95254.19;5073821;28;20383;-71
2023/01/09 13:10:46;;;;;;;;;;;;;;;6.72;94.89;95257.63;5075388;28;20317;-71